sensor_id;sensor_type;location;lat;lon;timestamp;temperature;humidity
51486;DHT22;37565;51.352;6.412;2022-10-22T00:00:56;18.90;99.90
51486;DHT22;37565;51.352;6.412;2022-10-22T00:03:24;18.90;99.90
51486;DHT22;37565;51.352;6.412;2022-10-22T00:05:52;18.90;99.90
51486;DHT22;37565;51.352;6.412;2022-10-22T00:08:20;18.90;99.90
51486;DHT22;37565;51.352;6.412;2022-10-22T00:10:48;18.90;99.90
51486;DHT22;37565;51.352;6.412;2022-10-22T00:13:16;18.90;99.90
51486;DHT22;37565;51.352;6.412;2022-10-22T00:15:45;18.90;99.90
51486;DHT22;37565;51.352;6.412;2022-10-22T00:18:13;18.90;99.90
51486;DHT22;37565;51.352;6.412;2022-10-22T00:20:41;18.90;99.90
51486;DHT22;37565;51.352;6.412;2022-10-22T00:23:09;18.90;99.90
51486;DHT22;37565;51.352;6.412;2022-10-22T00:25:37;18.90;99.90
51486;DHT22;37565;51.352;6.412;2022-10-22T00:28:05;18.80;99.90
51486;DHT22;37565;51.352;6.412;2022-10-22T00:30:33;18.80;99.90
51486;DHT22;37565;51.352;6.412;2022-10-22T00:33:02;18.80;99.90
51486;DHT22;37565;51.352;6.412;2022-10-22T00:35:31;18.80;99.90
51486;DHT22;37565;51.352;6.412;2022-10-22T00:37:59;18.80;99.90
51486;DHT22;37565;51.352;6.412;2022-10-22T00:40:27;18.80;99.90
51486;DHT22;37565;51.352;6.412;2022-10-22T00:42:55;18.80;99.90
51486;DHT22;37565;51.352;6.412;2022-10-22T00:45:24;18.80;99.90
51486;DHT22;37565;51.352;6.412;2022-10-22T00:47:55;18.80;99.90
51486;DHT22;37565;51.352;6.412;2022-10-22T00:50:29;18.80;99.90
51486;DHT22;37565;51.352;6.412;2022-10-22T00:52:58;18.80;99.90
51486;DHT22;37565;51.352;6.412;2022-10-22T00:55:27;18.80;99.90
51486;DHT22;37565;51.352;6.412;2022-10-22T00:57:56;18.80;99.90
51486;DHT22;37565;51.352;6.412;2022-10-22T01:00:25;18.80;99.90
51486;DHT22;37565;51.352;6.412;2022-10-22T01:02:53;18.80;99.90
51486;DHT22;37565;51.352;6.412;2022-10-22T01:05:22;18.80;99.90
51486;DHT22;37565;51.352;6.412;2022-10-22T01:07:52;18.80;99.90
51486;DHT22;37565;51.352;6.412;2022-10-22T01:10:33;18.80;99.90
51486;DHT22;37565;51.352;6.412;2022-10-22T01:13:15;18.80;99.90
51486;DHT22;37565;51.352;6.412;2022-10-22T01:15:49;18.80;99.90
51486;DHT22;37565;51.352;6.412;2022-10-22T01:18:22;18.80;99.90
51486;DHT22;37565;51.352;6.412;2022-10-22T01:20:58;18.80;99.90
51486;DHT22;37565;51.352;6.412;2022-10-22T01:23:55;18.90;99.90
51486;DHT22;37565;51.352;6.412;2022-10-22T01:26:41;18.80;99.90
51486;DHT22;37565;51.352;6.412;2022-10-22T01:29:14;18.80;99.90
51486;DHT22;37565;51.352;6.412;2022-10-22T01:31:45;18.80;99.90
51486;DHT22;37565;51.352;6.412;2022-10-22T01:34:16;18.80;99.90
51486;DHT22;37565;51.352;6.412;2022-10-22T01:36:45;18.80;99.90
51486;DHT22;37565;51.352;6.412;2022-10-22T01:39:14;18.80;99.90
51486;DHT22;37565;51.352;6.412;2022-10-22T01:41:43;18.80;99.90
51486;DHT22;37565;51.352;6.412;2022-10-22T01:44:25;18.80;99.90
51486;DHT22;37565;51.352;6.412;2022-10-22T01:47:09;18.80;99.90
51486;DHT22;37565;51.352;6.412;2022-10-22T01:49:56;18.80;99.90
51486;DHT22;37565;51.352;6.412;2022-10-22T01:52:36;18.80;99.90
51486;DHT22;37565;51.352;6.412;2022-10-22T01:55:16;18.80;99.90
51486;DHT22;37565;51.352;6.412;2022-10-22T01:57:52;18.80;99.90
51486;DHT22;37565;51.352;6.412;2022-10-22T02:00:23;18.80;99.90
51486;DHT22;37565;51.352;6.412;2022-10-22T02:02:57;18.80;99.90
51486;DHT22;37565;51.352;6.412;2022-10-22T02:05:30;18.70;99.90
51486;DHT22;37565;51.352;6.412;2022-10-22T02:08:02;18.70;99.90
51486;DHT22;37565;51.352;6.412;2022-10-22T02:10:33;18.70;99.90
51486;DHT22;37565;51.352;6.412;2022-10-22T02:13:06;18.70;99.90
51486;DHT22;37565;51.352;6.412;2022-10-22T02:15:37;18.70;99.90
51486;DHT22;37565;51.352;6.412;2022-10-22T02:18:08;18.70;99.90
51486;DHT22;37565;51.352;6.412;2022-10-22T02:20:38;18.70;99.90
51486;DHT22;37565;51.352;6.412;2022-10-22T02:23:07;18.70;99.90
51486;DHT22;37565;51.352;6.412;2022-10-22T02:25:38;18.70;99.90
51486;DHT22;37565;51.352;6.412;2022-10-22T02:28:13;18.70;99.90
51486;DHT22;37565;51.352;6.412;2022-10-22T02:30:47;18.70;99.90
51486;DHT22;37565;51.352;6.412;2022-10-22T02:33:22;18.70;99.90
51486;DHT22;37565;51.352;6.412;2022-10-22T02:35:51;18.60;99.90
51486;DHT22;37565;51.352;6.412;2022-10-22T02:38:20;18.70;99.90
51486;DHT22;37565;51.352;6.412;2022-10-22T02:40:48;18.70;99.90
51486;DHT22;37565;51.352;6.412;2022-10-22T02:43:17;18.70;99.90
51486;DHT22;37565;51.352;6.412;2022-10-22T02:45:46;18.60;99.90
51486;DHT22;37565;51.352;6.412;2022-10-22T02:48:14;18.60;99.90
51486;DHT22;37565;51.352;6.412;2022-10-22T02:50:42;18.60;99.90
51486;DHT22;37565;51.352;6.412;2022-10-22T02:53:10;18.60;99.90
51486;DHT22;37565;51.352;6.412;2022-10-22T02:55:38;18.60;99.90
51486;DHT22;37565;51.352;6.412;2022-10-22T02:58:06;18.60;99.90
51486;DHT22;37565;51.352;6.412;2022-10-22T03:00:33;18.60;99.90
51486;DHT22;37565;51.352;6.412;2022-10-22T03:03:03;18.60;99.90
51486;DHT22;37565;51.352;6.412;2022-10-22T03:05:31;18.60;99.90
51486;DHT22;37565;51.352;6.412;2022-10-22T03:07:58;18.60;99.90
51486;DHT22;37565;51.352;6.412;2022-10-22T03:10:26;18.60;99.90
51486;DHT22;37565;51.352;6.412;2022-10-22T03:12:54;18.60;99.90
51486;DHT22;37565;51.352;6.412;2022-10-22T03:15:22;18.60;99.90
51486;DHT22;37565;51.352;6.412;2022-10-22T03:17:50;18.60;99.90
51486;DHT22;37565;51.352;6.412;2022-10-22T03:20:20;18.60;99.90
51486;DHT22;37565;51.352;6.412;2022-10-22T03:22:48;18.60;99.90
51486;DHT22;37565;51.352;6.412;2022-10-22T03:25:21;18.60;99.90
51486;DHT22;37565;51.352;6.412;2022-10-22T03:27:50;18.60;99.90
51486;DHT22;37565;51.352;6.412;2022-10-22T03:30:19;18.60;99.90
51486;DHT22;37565;51.352;6.412;2022-10-22T03:32:47;18.60;99.90
51486;DHT22;37565;51.352;6.412;2022-10-22T03:35:15;18.60;99.90
51486;DHT22;37565;51.352;6.412;2022-10-22T03:37:44;18.60;99.90
51486;DHT22;37565;51.352;6.412;2022-10-22T03:40:12;18.60;99.90
51486;DHT22;37565;51.352;6.412;2022-10-22T03:42:41;18.60;99.90
51486;DHT22;37565;51.352;6.412;2022-10-22T03:45:10;18.60;99.90
51486;DHT22;37565;51.352;6.412;2022-10-22T03:47:37;18.60;99.90
51486;DHT22;37565;51.352;6.412;2022-10-22T03:50:07;18.60;99.90
51486;DHT22;37565;51.352;6.412;2022-10-22T03:52:37;18.60;99.90
51486;DHT22;37565;51.352;6.412;2022-10-22T03:55:07;18.60;99.90
51486;DHT22;37565;51.352;6.412;2022-10-22T03:57:35;18.60;99.90
51486;DHT22;37565;51.352;6.412;2022-10-22T04:00:05;18.60;99.90
51486;DHT22;37565;51.352;6.412;2022-10-22T04:02:33;18.60;99.90
51486;DHT22;37565;51.352;6.412;2022-10-22T04:05:01;18.60;99.90
51486;DHT22;37565;51.352;6.412;2022-10-22T04:07:29;18.60;99.90
51486;DHT22;37565;51.352;6.412;2022-10-22T04:09:57;18.60;99.90
51486;DHT22;37565;51.352;6.412;2022-10-22T04:12:26;18.50;99.90
51486;DHT22;37565;51.352;6.412;2022-10-22T04:14:54;18.60;99.90
51486;DHT22;37565;51.352;6.412;2022-10-22T04:17:22;18.60;99.90
51486;DHT22;37565;51.352;6.412;2022-10-22T04:19:50;18.60;99.90
51486;DHT22;37565;51.352;6.412;2022-10-22T04:22:18;18.60;99.90
51486;DHT22;37565;51.352;6.412;2022-10-22T04:24:46;18.50;99.90
51486;DHT22;37565;51.352;6.412;2022-10-22T04:27:14;18.50;99.90
51486;DHT22;37565;51.352;6.412;2022-10-22T04:29:43;18.50;99.90
51486;DHT22;37565;51.352;6.412;2022-10-22T04:32:11;18.50;99.90
51486;DHT22;37565;51.352;6.412;2022-10-22T04:34:39;18.50;99.90
51486;DHT22;37565;51.352;6.412;2022-10-22T04:37:06;18.50;99.90
51486;DHT22;37565;51.352;6.412;2022-10-22T04:39:34;18.50;99.90
51486;DHT22;37565;51.352;6.412;2022-10-22T04:42:02;18.50;99.90
51486;DHT22;37565;51.352;6.412;2022-10-22T04:44:31;18.50;99.90
51486;DHT22;37565;51.352;6.412;2022-10-22T04:47:00;18.50;99.90
51486;DHT22;37565;51.352;6.412;2022-10-22T04:49:28;18.50;99.90
51486;DHT22;37565;51.352;6.412;2022-10-22T04:51:56;18.50;99.90
51486;DHT22;37565;51.352;6.412;2022-10-22T04:54:23;18.50;99.90
51486;DHT22;37565;51.352;6.412;2022-10-22T04:56:57;18.50;99.90
51486;DHT22;37565;51.352;6.412;2022-10-22T04:59:25;18.50;99.90
51486;DHT22;37565;51.352;6.412;2022-10-22T05:01:53;18.50;99.90
51486;DHT22;37565;51.352;6.412;2022-10-22T05:04:23;18.50;99.90
51486;DHT22;37565;51.352;6.412;2022-10-22T05:06:51;18.50;99.90
51486;DHT22;37565;51.352;6.412;2022-10-22T05:09:19;18.50;99.90
51486;DHT22;37565;51.352;6.412;2022-10-22T05:11:50;18.50;99.90
51486;DHT22;37565;51.352;6.412;2022-10-22T05:14:20;18.50;99.90
51486;DHT22;37565;51.352;6.412;2022-10-22T05:16:49;18.50;99.90
51486;DHT22;37565;51.352;6.412;2022-10-22T05:19:19;18.50;99.90
51486;DHT22;37565;51.352;6.412;2022-10-22T05:21:50;18.50;99.90
51486;DHT22;37565;51.352;6.412;2022-10-22T05:24:19;18.50;99.90
51486;DHT22;37565;51.352;6.412;2022-10-22T05:26:48;18.50;99.90
51486;DHT22;37565;51.352;6.412;2022-10-22T05:29:16;18.50;99.90
51486;DHT22;37565;51.352;6.412;2022-10-22T05:31:44;18.50;99.90
51486;DHT22;37565;51.352;6.412;2022-10-22T05:34:12;18.40;99.90
51486;DHT22;37565;51.352;6.412;2022-10-22T05:36:41;18.40;99.90
51486;DHT22;37565;51.352;6.412;2022-10-22T05:39:11;18.50;99.90
51486;DHT22;37565;51.352;6.412;2022-10-22T05:41:39;18.40;99.90
51486;DHT22;37565;51.352;6.412;2022-10-22T05:44:11;18.40;99.90
51486;DHT22;37565;51.352;6.412;2022-10-22T05:46:39;18.40;99.90
51486;DHT22;37565;51.352;6.412;2022-10-22T05:49:07;18.40;99.90
51486;DHT22;37565;51.352;6.412;2022-10-22T05:51:35;18.40;99.90
51486;DHT22;37565;51.352;6.412;2022-10-22T05:54:05;18.40;99.90
51486;DHT22;37565;51.352;6.412;2022-10-22T05:56:35;18.40;99.90
51486;DHT22;37565;51.352;6.412;2022-10-22T05:59:03;18.50;99.90
51486;DHT22;37565;51.352;6.412;2022-10-22T06:01:32;18.50;99.90
51486;DHT22;37565;51.352;6.412;2022-10-22T06:04:03;18.40;99.90
51486;DHT22;37565;51.352;6.412;2022-10-22T06:06:33;18.40;99.90
51486;DHT22;37565;51.352;6.412;2022-10-22T06:09:03;18.40;99.90
51486;DHT22;37565;51.352;6.412;2022-10-22T06:11:32;18.40;99.90
51486;DHT22;37565;51.352;6.412;2022-10-22T06:14:02;18.40;99.90
51486;DHT22;37565;51.352;6.412;2022-10-22T06:16:31;18.40;99.90
51486;DHT22;37565;51.352;6.412;2022-10-22T06:18:59;18.40;99.90
51486;DHT22;37565;51.352;6.412;2022-10-22T06:21:27;18.40;99.90
51486;DHT22;37565;51.352;6.412;2022-10-22T06:23:56;18.40;99.90
51486;DHT22;37565;51.352;6.412;2022-10-22T06:26:24;18.40;99.90
51486;DHT22;37565;51.352;6.412;2022-10-22T06:28:53;18.40;99.90
51486;DHT22;37565;51.352;6.412;2022-10-22T06:31:24;18.40;99.90
51486;DHT22;37565;51.352;6.412;2022-10-22T06:33:52;18.40;99.90
51486;DHT22;37565;51.352;6.412;2022-10-22T06:36:22;18.50;99.90
51486;DHT22;37565;51.352;6.412;2022-10-22T06:38:50;18.50;99.90
51486;DHT22;37565;51.352;6.412;2022-10-22T06:41:19;18.60;99.90
51486;DHT22;37565;51.352;6.412;2022-10-22T06:43:53;18.60;99.90
51486;DHT22;37565;51.352;6.412;2022-10-22T06:46:22;18.60;99.90
51486;DHT22;37565;51.352;6.412;2022-10-22T06:48:53;18.60;99.90
51486;DHT22;37565;51.352;6.412;2022-10-22T06:51:21;18.70;99.90
51486;DHT22;37565;51.352;6.412;2022-10-22T06:53:49;18.70;99.90
51486;DHT22;37565;51.352;6.412;2022-10-22T06:56:20;18.80;99.90
51486;DHT22;37565;51.352;6.412;2022-10-22T06:58:49;18.80;99.90
51486;DHT22;37565;51.352;6.412;2022-10-22T07:01:19;18.80;99.90
51486;DHT22;37565;51.352;6.412;2022-10-22T07:03:49;18.80;99.90
51486;DHT22;37565;51.352;6.412;2022-10-22T07:06:18;18.80;99.90
51486;DHT22;37565;51.352;6.412;2022-10-22T07:08:46;18.80;99.90
51486;DHT22;37565;51.352;6.412;2022-10-22T07:11:16;18.80;99.90
51486;DHT22;37565;51.352;6.412;2022-10-22T07:13:45;18.80;99.90
51486;DHT22;37565;51.352;6.412;2022-10-22T07:16:14;18.80;99.90
51486;DHT22;37565;51.352;6.412;2022-10-22T07:18:42;18.80;99.90
51486;DHT22;37565;51.352;6.412;2022-10-22T07:21:12;18.90;99.90
51486;DHT22;37565;51.352;6.412;2022-10-22T07:23:41;18.90;99.90
51486;DHT22;37565;51.352;6.412;2022-10-22T07:26:11;18.90;99.90
51486;DHT22;37565;51.352;6.412;2022-10-22T07:28:39;18.90;99.90
51486;DHT22;37565;51.352;6.412;2022-10-22T07:31:09;18.90;99.90
51486;DHT22;37565;51.352;6.412;2022-10-22T07:33:38;19.00;99.90
51486;DHT22;37565;51.352;6.412;2022-10-22T07:36:08;19.00;99.90
51486;DHT22;37565;51.352;6.412;2022-10-22T07:38:38;19.00;99.90
51486;DHT22;37565;51.352;6.412;2022-10-22T07:41:06;19.00;99.90
51486;DHT22;37565;51.352;6.412;2022-10-22T07:43:34;19.00;99.90
51486;DHT22;37565;51.352;6.412;2022-10-22T07:46:02;19.00;99.90
51486;DHT22;37565;51.352;6.412;2022-10-22T07:48:30;19.00;99.90
51486;DHT22;37565;51.352;6.412;2022-10-22T07:50:58;18.90;99.90
51486;DHT22;37565;51.352;6.412;2022-10-22T07:53:26;18.80;99.90
51486;DHT22;37565;51.352;6.412;2022-10-22T07:55:55;18.90;99.90
51486;DHT22;37565;51.352;6.412;2022-10-22T07:58:23;18.90;99.90
51486;DHT22;37565;51.352;6.412;2022-10-22T08:00:54;19.00;99.90
51486;DHT22;37565;51.352;6.412;2022-10-22T08:03:22;18.90;99.90
51486;DHT22;37565;51.352;6.412;2022-10-22T08:05:51;19.00;99.90
51486;DHT22;37565;51.352;6.412;2022-10-22T08:08:20;19.00;99.90
51486;DHT22;37565;51.352;6.412;2022-10-22T08:10:52;19.00;99.90
51486;DHT22;37565;51.352;6.412;2022-10-22T08:13:26;19.00;99.90
51486;DHT22;37565;51.352;6.412;2022-10-22T08:15:56;19.00;99.90
51486;DHT22;37565;51.352;6.412;2022-10-22T08:18:24;19.00;99.90
51486;DHT22;37565;51.352;6.412;2022-10-22T08:20:52;19.10;99.90
51486;DHT22;37565;51.352;6.412;2022-10-22T08:23:20;19.10;99.90
51486;DHT22;37565;51.352;6.412;2022-10-22T08:25:54;19.10;99.90
51486;DHT22;37565;51.352;6.412;2022-10-22T08:28:22;19.10;99.90
51486;DHT22;37565;51.352;6.412;2022-10-22T08:30:52;19.10;99.90
51486;DHT22;37565;51.352;6.412;2022-10-22T08:33:20;19.10;99.90
51486;DHT22;37565;51.352;6.412;2022-10-22T08:35:49;19.10;99.90
51486;DHT22;37565;51.352;6.412;2022-10-22T08:38:17;19.20;99.90
51486;DHT22;37565;51.352;6.412;2022-10-22T08:40:48;19.10;99.90
51486;DHT22;37565;51.352;6.412;2022-10-22T08:43:35;19.10;99.90
51486;DHT22;37565;51.352;6.412;2022-10-22T08:46:16;19.10;99.90
51486;DHT22;37565;51.352;6.412;2022-10-22T08:48:46;19.10;99.90
51486;DHT22;37565;51.352;6.412;2022-10-22T08:51:17;19.20;99.90
51486;DHT22;37565;51.352;6.412;2022-10-22T08:54:16;19.10;99.90
51486;DHT22;37565;51.352;6.412;2022-10-22T08:56:52;19.20;99.90
51486;DHT22;37565;51.352;6.412;2022-10-22T08:59:25;19.10;99.90
51486;DHT22;37565;51.352;6.412;2022-10-22T09:01:55;19.10;99.90
51486;DHT22;37565;51.352;6.412;2022-10-22T09:04:27;19.10;99.90
51486;DHT22;37565;51.352;6.412;2022-10-22T09:06:58;19.10;99.90
51486;DHT22;37565;51.352;6.412;2022-10-22T09:09:29;19.10;99.90
51486;DHT22;37565;51.352;6.412;2022-10-22T09:11:59;19.10;99.90
51486;DHT22;37565;51.352;6.412;2022-10-22T09:14:27;19.20;99.90
51486;DHT22;37565;51.352;6.412;2022-10-22T09:17:11;19.20;99.90
51486;DHT22;37565;51.352;6.412;2022-10-22T09:19:48;19.20;99.90
51486;DHT22;37565;51.352;6.412;2022-10-22T09:22:29;19.20;99.90
51486;DHT22;37565;51.352;6.412;2022-10-22T09:25:21;19.20;99.90
51486;DHT22;37565;51.352;6.412;2022-10-22T09:27:49;19.30;99.90
51486;DHT22;37565;51.352;6.412;2022-10-22T09:30:21;19.30;99.90
51486;DHT22;37565;51.352;6.412;2022-10-22T09:32:51;19.30;99.90
51486;DHT22;37565;51.352;6.412;2022-10-22T09:35:22;19.30;99.90
51486;DHT22;37565;51.352;6.412;2022-10-22T09:37:53;19.30;99.90
51486;DHT22;37565;51.352;6.412;2022-10-22T09:40:21;19.30;99.90
51486;DHT22;37565;51.352;6.412;2022-10-22T09:42:49;19.30;99.90
51486;DHT22;37565;51.352;6.412;2022-10-22T09:45:19;19.40;99.90
51486;DHT22;37565;51.352;6.412;2022-10-22T09:47:47;19.30;99.90
51486;DHT22;37565;51.352;6.412;2022-10-22T09:50:40;19.20;99.90
51486;DHT22;37565;51.352;6.412;2022-10-22T09:53:16;19.10;99.90
51486;DHT22;37565;51.352;6.412;2022-10-22T09:55:50;19.00;99.90
51486;DHT22;37565;51.352;6.412;2022-10-22T09:58:19;19.00;99.90
51486;DHT22;37565;51.352;6.412;2022-10-22T10:00:51;18.90;99.90
51486;DHT22;37565;51.352;6.412;2022-10-22T10:03:23;18.90;99.90
51486;DHT22;37565;51.352;6.412;2022-10-22T10:05:54;18.90;99.90
51486;DHT22;37565;51.352;6.412;2022-10-22T10:08:28;18.90;99.90
51486;DHT22;37565;51.352;6.412;2022-10-22T10:11:00;18.90;99.90
51486;DHT22;37565;51.352;6.412;2022-10-22T10:13:41;19.00;99.90
51486;DHT22;37565;51.352;6.412;2022-10-22T10:16:23;19.00;99.90
51486;DHT22;37565;51.352;6.412;2022-10-22T10:19:05;19.00;99.90
51486;DHT22;37565;51.352;6.412;2022-10-22T10:21:46;19.10;99.90
51486;DHT22;37565;51.352;6.412;2022-10-22T10:24:21;19.10;99.90
51486;DHT22;37565;51.352;6.412;2022-10-22T10:26:55;19.10;99.90
51486;DHT22;37565;51.352;6.412;2022-10-22T10:29:35;19.10;99.90
51486;DHT22;37565;51.352;6.412;2022-10-22T10:32:16;19.10;99.90
51486;DHT22;37565;51.352;6.412;2022-10-22T10:34:56;19.20;99.90
51486;DHT22;37565;51.352;6.412;2022-10-22T10:37:32;19.20;99.90
51486;DHT22;37565;51.352;6.412;2022-10-22T10:40:10;19.20;99.90
51486;DHT22;37565;51.352;6.412;2022-10-22T10:42:45;19.20;99.90
51486;DHT22;37565;51.352;6.412;2022-10-22T10:45:17;19.20;99.90
51486;DHT22;37565;51.352;6.412;2022-10-22T10:48:14;19.20;99.90
51486;DHT22;37565;51.352;6.412;2022-10-22T10:50:53;19.20;99.90
51486;DHT22;37565;51.352;6.412;2022-10-22T10:53:33;19.20;99.90
51486;DHT22;37565;51.352;6.412;2022-10-22T10:56:21;19.20;99.90
51486;DHT22;37565;51.352;6.412;2022-10-22T10:58:55;19.10;99.90
51486;DHT22;37565;51.352;6.412;2022-10-22T11:01:33;19.10;99.90
51486;DHT22;37565;51.352;6.412;2022-10-22T11:04:19;19.10;99.90
51486;DHT22;37565;51.352;6.412;2022-10-22T11:06:52;19.10;99.90
51486;DHT22;37565;51.352;6.412;2022-10-22T11:09:46;19.10;99.90
51486;DHT22;37565;51.352;6.412;2022-10-22T11:12:20;19.10;99.90
51486;DHT22;37565;51.352;6.412;2022-10-22T11:14:55;19.10;99.90
51486;DHT22;37565;51.352;6.412;2022-10-22T11:17:31;19.10;99.90
51486;DHT22;37565;51.352;6.412;2022-10-22T11:20:08;19.00;99.90
51486;DHT22;37565;51.352;6.412;2022-10-22T11:22:44;19.10;99.90
51486;DHT22;37565;51.352;6.412;2022-10-22T11:25:39;19.10;99.90
51486;DHT22;37565;51.352;6.412;2022-10-22T11:28:13;19.10;99.90
51486;DHT22;37565;51.352;6.412;2022-10-22T11:30:44;19.10;99.90
51486;DHT22;37565;51.352;6.412;2022-10-22T11:33:18;19.10;99.90
51486;DHT22;37565;51.352;6.412;2022-10-22T11:35:49;19.00;99.90
51486;DHT22;37565;51.352;6.412;2022-10-22T11:38:21;19.00;99.90
51486;DHT22;37565;51.352;6.412;2022-10-22T11:40:56;19.00;99.90
51486;DHT22;37565;51.352;6.412;2022-10-22T11:43:27;19.10;99.90
51486;DHT22;37565;51.352;6.412;2022-10-22T11:46:08;19.00;99.90
51486;DHT22;37565;51.352;6.412;2022-10-22T11:49:04;19.00;99.90
51486;DHT22;37565;51.352;6.412;2022-10-22T11:51:33;19.00;99.90
51486;DHT22;37565;51.352;6.412;2022-10-22T11:54:02;19.00;99.90
51486;DHT22;37565;51.352;6.412;2022-10-22T11:56:38;19.00;99.90
51486;DHT22;37565;51.352;6.412;2022-10-22T11:59:33;19.00;99.90
51486;DHT22;37565;51.352;6.412;2022-10-22T12:02:37;19.00;99.90
51486;DHT22;37565;51.352;6.412;2022-10-22T12:08:21;19.00;99.90
51486;DHT22;37565;51.352;6.412;2022-10-22T12:11:03;19.00;99.90
51486;DHT22;37565;51.352;6.412;2022-10-22T12:13:55;19.00;99.90
51486;DHT22;37565;51.352;6.412;2022-10-22T12:16:26;19.00;99.90
51486;DHT22;37565;51.352;6.412;2022-10-22T12:19:16;19.00;99.90
51486;DHT22;37565;51.352;6.412;2022-10-22T12:21:47;19.00;99.90
51486;DHT22;37565;51.352;6.412;2022-10-22T12:24:19;19.00;99.90
51486;DHT22;37565;51.352;6.412;2022-10-22T12:26:47;19.00;99.90
51486;DHT22;37565;51.352;6.412;2022-10-22T12:29:21;19.00;99.90
51486;DHT22;37565;51.352;6.412;2022-10-22T12:31:51;19.00;99.90
51486;DHT22;37565;51.352;6.412;2022-10-22T12:34:22;19.00;99.90
51486;DHT22;37565;51.352;6.412;2022-10-22T12:36:52;19.00;99.90
51486;DHT22;37565;51.352;6.412;2022-10-22T12:39:24;19.00;99.90
51486;DHT22;37565;51.352;6.412;2022-10-22T12:41:53;19.00;99.90
51486;DHT22;37565;51.352;6.412;2022-10-22T12:44:23;19.00;99.90
51486;DHT22;37565;51.352;6.412;2022-10-22T12:46:51;19.00;99.90
51486;DHT22;37565;51.352;6.412;2022-10-22T12:49:25;19.10;99.90
51486;DHT22;37565;51.352;6.412;2022-10-22T12:51:59;19.00;99.90
51486;DHT22;37565;51.352;6.412;2022-10-22T12:54:30;19.00;99.90
51486;DHT22;37565;51.352;6.412;2022-10-22T12:56:59;19.00;99.90
51486;DHT22;37565;51.352;6.412;2022-10-22T12:59:32;19.10;99.90
51486;DHT22;37565;51.352;6.412;2022-10-22T13:02:01;19.00;99.90
51486;DHT22;37565;51.352;6.412;2022-10-22T13:04:36;19.10;99.90
51486;DHT22;37565;51.352;6.412;2022-10-22T13:07:16;19.10;99.90
51486;DHT22;37565;51.352;6.412;2022-10-22T13:09:56;19.10;99.90
51486;DHT22;37565;51.352;6.412;2022-10-22T13:12:27;19.00;99.90
51486;DHT22;37565;51.352;6.412;2022-10-22T13:14:56;19.10;99.90
51486;DHT22;37565;51.352;6.412;2022-10-22T13:17:44;19.10;99.90
51486;DHT22;37565;51.352;6.412;2022-10-22T13:20:19;19.10;99.90
51486;DHT22;37565;51.352;6.412;2022-10-22T13:22:55;19.10;99.90
51486;DHT22;37565;51.352;6.412;2022-10-22T13:25:28;19.10;99.90
51486;DHT22;37565;51.352;6.412;2022-10-22T13:27:58;19.10;99.90
51486;DHT22;37565;51.352;6.412;2022-10-22T13:30:29;19.20;99.90
51486;DHT22;37565;51.352;6.412;2022-10-22T13:32:59;19.10;99.90
51486;DHT22;37565;51.352;6.412;2022-10-22T13:35:29;19.10;99.90
51486;DHT22;37565;51.352;6.412;2022-10-22T13:37:58;19.10;99.90
51486;DHT22;37565;51.352;6.412;2022-10-22T13:40:26;19.10;99.90
51486;DHT22;37565;51.352;6.412;2022-10-22T13:42:54;19.10;99.90
51486;DHT22;37565;51.352;6.412;2022-10-22T13:45:22;19.10;99.90
51486;DHT22;37565;51.352;6.412;2022-10-22T13:47:53;19.10;99.90
51486;DHT22;37565;51.352;6.412;2022-10-22T13:50:22;19.10;99.90
51486;DHT22;37565;51.352;6.412;2022-10-22T13:52:52;19.10;99.90
51486;DHT22;37565;51.352;6.412;2022-10-22T13:55:23;19.10;99.90
51486;DHT22;37565;51.352;6.412;2022-10-22T13:57:54;19.10;99.90
51486;DHT22;37565;51.352;6.412;2022-10-22T14:00:23;19.10;99.90
51486;DHT22;37565;51.352;6.412;2022-10-22T14:02:56;19.10;99.90
51486;DHT22;37565;51.352;6.412;2022-10-22T14:05:24;19.10;99.90
51486;DHT22;37565;51.352;6.412;2022-10-22T14:07:53;19.10;99.90
51486;DHT22;37565;51.352;6.412;2022-10-22T14:10:23;19.10;99.90
51486;DHT22;37565;51.352;6.412;2022-10-22T14:12:51;19.10;99.90
51486;DHT22;37565;51.352;6.412;2022-10-22T14:15:21;19.10;99.90
51486;DHT22;37565;51.352;6.412;2022-10-22T14:17:54;19.10;99.90
51486;DHT22;37565;51.352;6.412;2022-10-22T14:20:25;19.10;99.90
51486;DHT22;37565;51.352;6.412;2022-10-22T14:22:54;19.10;99.90
51486;DHT22;37565;51.352;6.412;2022-10-22T14:25:23;19.30;99.90
51486;DHT22;37565;51.352;6.412;2022-10-22T14:27:51;19.10;99.90
51486;DHT22;37565;51.352;6.412;2022-10-22T14:30:21;19.10;99.90
51486;DHT22;37565;51.352;6.412;2022-10-22T14:32:50;19.20;99.90
51486;DHT22;37565;51.352;6.412;2022-10-22T14:35:21;19.20;99.90
51486;DHT22;37565;51.352;6.412;2022-10-22T14:37:50;19.10;99.90
51486;DHT22;37565;51.352;6.412;2022-10-22T14:40:19;19.20;99.90
51486;DHT22;37565;51.352;6.412;2022-10-22T14:42:47;19.10;99.90
51486;DHT22;37565;51.352;6.412;2022-10-22T14:45:17;19.20;99.90
51486;DHT22;37565;51.352;6.412;2022-10-22T14:47:46;19.20;99.90
51486;DHT22;37565;51.352;6.412;2022-10-22T14:50:14;19.10;99.90
51486;DHT22;37565;51.352;6.412;2022-10-22T14:52:44;19.20;99.90
51486;DHT22;37565;51.352;6.412;2022-10-22T14:55:13;19.10;99.90
51486;DHT22;37565;51.352;6.412;2022-10-22T14:57:41;19.10;99.90
51486;DHT22;37565;51.352;6.412;2022-10-22T15:00:12;19.10;99.90
51486;DHT22;37565;51.352;6.412;2022-10-22T15:02:40;19.20;99.90
51486;DHT22;37565;51.352;6.412;2022-10-22T15:05:09;19.20;99.90
51486;DHT22;37565;51.352;6.412;2022-10-22T15:07:37;19.10;99.90
51486;DHT22;37565;51.352;6.412;2022-10-22T15:10:08;19.10;99.90
51486;DHT22;37565;51.352;6.412;2022-10-22T15:12:36;19.20;99.90
51486;DHT22;37565;51.352;6.412;2022-10-22T15:15:05;19.20;99.90
51486;DHT22;37565;51.352;6.412;2022-10-22T15:17:33;19.20;99.90
51486;DHT22;37565;51.352;6.412;2022-10-22T15:20:02;19.10;99.90
51486;DHT22;37565;51.352;6.412;2022-10-22T15:22:31;19.10;99.90
51486;DHT22;37565;51.352;6.412;2022-10-22T15:25:01;19.20;99.90
51486;DHT22;37565;51.352;6.412;2022-10-22T15:27:31;19.10;99.90
51486;DHT22;37565;51.352;6.412;2022-10-22T15:29:59;19.10;99.90
51486;DHT22;37565;51.352;6.412;2022-10-22T15:32:32;19.10;99.90
51486;DHT22;37565;51.352;6.412;2022-10-22T15:35:00;19.10;99.90
51486;DHT22;37565;51.352;6.412;2022-10-22T15:37:28;19.10;99.90
51486;DHT22;37565;51.352;6.412;2022-10-22T15:39:56;19.10;99.90
51486;DHT22;37565;51.352;6.412;2022-10-22T15:42:26;19.10;99.90
51486;DHT22;37565;51.352;6.412;2022-10-22T15:44:57;19.10;99.90
51486;DHT22;37565;51.352;6.412;2022-10-22T15:47:25;19.10;99.90
51486;DHT22;37565;51.352;6.412;2022-10-22T15:49:55;19.10;99.90
51486;DHT22;37565;51.352;6.412;2022-10-22T15:52:23;19.10;99.90
51486;DHT22;37565;51.352;6.412;2022-10-22T15:54:51;19.10;99.90
51486;DHT22;37565;51.352;6.412;2022-10-22T15:57:19;19.10;99.90
51486;DHT22;37565;51.352;6.412;2022-10-22T15:59:47;19.10;99.90